Terminal Aerodrome Forecast
Issued by NWS

Home | Current Version | Previous Version | Text Only | Print | Product List | Glossary On
Versions: 1 2 3 4 5 6 7 8 9 10 11 12 13 14 15
000
FTUS43 KSGF 250520
TAFBBG
TAF
KBBG 250520Z 2506/2606 00000KT P6SM FEW250
     FM251200 00000KT P6SM VCTS BKN200CB PROB30 2516/2520 4SM -TSRA
      OVC040CB=

USA.gov is the U.S. government's official web portal to all federal, state and local government web resources and services.